Time;durP1;ratioP1;P1;durP2;ratioP2;P2;SDS_P1;SDS_P2;PMS_P1;PMS_P2;Temp;Humidity;BMP_temperature;BMP_pressure;BME280_temperature;BME280_humidity;BME280_pressure;Samples;Min_cycle;Max_cycle;Signal;HPM_P1;HPM_P2
2023/04/10 00:01:12;;;;;;;;;;;;;;;8.05;nan;102176.28;4141241;28;19936;-61
2023/04/10 00:03:21;;;;;;;;;;;;;;;8.10;nan;102173.22;4140727;28;19937;-62
2023/04/10 00:05:26;;;;;;;;;;;;;;;8.13;nan;102172.97;4162944;28;20735;-63
2023/04/10 00:07:30;;;;;;;;;;;;;;;8.09;nan;102176.91;4141821;28;20037;-62
2023/04/10 00:09:39;;;;;;;;;;;;;;;8.01;nan;102174.84;4141364;28;19925;-63
2023/04/10 00:11:49;;;;;;;;;;;;;;;7.93;nan;102170.09;4140535;28;19937;-62
2023/04/10 00:13:52;;;;;;;;;;;;;;;7.88;nan;102175.00;4146737;28;20032;-62
2023/04/10 00:15:57;;;;;;;;;;;;;;;7.88;nan;102172.28;4140747;28;19999;-63
2023/04/10 00:18:00;;;;;;;;;;;;;;;7.85;nan;102169.84;4140310;28;20023;-62
2023/04/10 00:20:03;;;;;;;;;;;;;;;7.81;nan;102172.91;4140075;28;20048;-62
2023/04/10 00:22:06;;;;;;;;;;;;;;;7.76;nan;102168.75;4139818;28;19929;-62
2023/04/10 00:24:08;;;;;;;;;;;;;;;7.71;nan;102170.97;4140603;28;20024;-63
2023/04/10 00:26:12;;;;;;;;;;;;;;;7.71;nan;102165.59;4141033;28;20381;-62
2023/04/10 00:28:16;;;;;;;;;;;;;;;7.69;nan;102162.13;4140951;28;20021;-62
2023/04/10 00:30:18;;;;;;;;;;;;;;;7.61;nan;102163.75;4139394;28;20468;-62
2023/04/10 00:32:20;;;;;;;;;;;;;;;7.57;nan;102157.78;4139206;28;20019;-62
2023/04/10 00:34:24;;;;;;;;;;;;;;;7.49;nan;102147.63;4140169;28;19930;-63
2023/04/10 00:36:26;;;;;;;;;;;;;;;7.46;nan;102145.19;4145870;28;20000;-62
2023/04/10 00:38:29;;;;;;;;;;;;;;;7.39;nan;102144.78;4139915;28;20041;-62
2023/04/10 00:40:30;;;;;;;;;;;;;;;7.39;nan;102149.31;4140697;28;20008;-63
2023/04/10 00:42:34;;;;;;;;;;;;;;;7.33;nan;102152.50;4162308;28;20051;-62
2023/04/10 00:44:36;;;;;;;;;;;;;;;7.29;nan;102159.94;4140224;28;20016;-61
2023/04/10 00:46:39;;;;;;;;;;;;;;;7.24;nan;102150.53;4141200;28;20024;-61
2023/04/10 00:48:41;;;;;;;;;;;;;;;7.19;nan;102151.75;4139071;28;20028;-62
2023/04/10 00:50:43;;;;;;;;;;;;;;;7.15;nan;102144.91;4140462;28;20028;-62
2023/04/10 00:52:45;;;;;;;;;;;;;;;7.11;nan;102142.59;4139935;28;20023;-63
2023/04/10 00:54:47;;;;;;;;;;;;;;;7.13;nan;102138.81;4140314;28;19925;-62
2023/04/10 00:56:49;;;;;;;;;;;;;;;7.13;nan;102138.81;4140463;28;20012;-62
2023/04/10 00:58:52;;;;;;;;;;;;;;;7.14;nan;102142.34;4146044;28;20033;-62
2023/04/10 01:00:54;;;;;;;;;;;;;;;7.10;nan;102140.84;4139079;28;20028;-62
2023/04/10 01:02:57;;;;;;;;;;;;;;;7.06;nan;102140.25;4145619;28;20020;-62
2023/04/10 01:04:58;;;;;;;;;;;;;;;7.06;nan;102142.94;4140401;28;20031;-62
2023/04/10 01:07:04;;;;;;;;;;;;;;;7.03;nan;102143.19;4139895;28;20370;-61
2023/04/10 01:09:09;;;;;;;;;;;;;;;6.98;nan;102134.63;4140708;28;20040;-62
2023/04/10 01:11:13;;;;;;;;;;;;;;;6.96;nan;102133.88;4146050;28;20016;-62
2023/04/10 01:13:16;;;;;;;;;;;;;;;6.91;nan;102130.69;4139833;28;20017;-61
2023/04/10 01:15:20;;;;;;;;;;;;;;;6.85;nan;102129.34;4140144;28;20435;-62
2023/04/10 01:17:22;;;;;;;;;;;;;;;6.77;nan;102126.38;4138951;28;20029;-62
2023/04/10 01:19:26;;;;;;;;;;;;;;;6.74;nan;102129.31;4138665;28;20020;-60
2023/04/10 01:21:28;;;;;;;;;;;;;;;6.76;nan;102133.59;4139063;28;20036;-61
2023/04/10 01:23:43;;;;;;;;;;;;;;;6.82;nan;102135.81;4139440;28;20110;-62
2023/04/10 01:25:45;;;;;;;;;;;;;;;6.88;nan;102134.50;4161966;28;20004;-60
2023/04/10 01:27:52;;;;;;;;;;;;;;;6.96;nan;102141.94;4138246;28;20049;-61
2023/04/10 01:29:56;;;;;;;;;;;;;;;6.97;nan;102133.75;4140528;28;20057;-62
2023/04/10 01:32:00;;;;;;;;;;;;;;;6.96;nan;102131.19;4161061;28;20035;-62
2023/04/10 01:34:04;;;;;;;;;;;;;;;6.90;nan;102135.22;4145375;28;20008;-61
2023/04/10 01:36:06;;;;;;;;;;;;;;;6.85;nan;102132.03;4140482;28;19933;-61
2023/04/10 01:38:08;;;;;;;;;;;;;;;6.80;nan;102132.41;4138877;28;20032;-62
2023/04/10 01:40:11;;;;;;;;;;;;;;;6.76;nan;102133.59;4139466;28;20483;-62
2023/04/10 01:42:14;;;;;;;;;;;;;;;6.72;nan;102137.47;4137883;28;20494;-62
2023/04/10 01:44:17;;;;;;;;;;;;;;;6.71;nan;102140.28;4139675;28;20113;-62
2023/04/10 01:46:21;;;;;;;;;;;;;;;6.72;nan;102139.31;4139268;28;20022;-62
2023/04/10 01:48:23;;;;;;;;;;;;;;;6.66;nan;102137.94;4145494;28;20020;-59
2023/04/10 01:50:27;;;;;;;;;;;;;;;6.52;nan;102141.72;4139422;28;20443;-62
2023/04/10 01:52:29;;;;;;;;;;;;;;;6.41;nan;102137.16;4138254;28;20025;-62
2023/04/10 01:54:42;;;;;;;;;;;;;;;6.38;nan;102137.38;4144342;28;20028;-62
2023/04/10 01:56:57;;;;;;;;;;;;;;;6.38;nan;102140.06;4138516;28;19936;-62
2023/04/10 01:59:02;;;;;;;;;;;;;;;6.38;nan;102133.81;4160688;28;20017;-62
2023/04/10 02:01:04;;;;;;;;;;;;;;;6.39;nan;102132.84;4122051;28;20029;-61
2023/04/10 02:03:08;;;;;;;;;;;;;;;6.36;nan;102133.94;4135781;28;20033;-62
2023/04/10 02:05:10;;;;;;;;;;;;;;;6.32;nan;102127.09;4138729;28;20017;-62
2023/04/10 02:07:14;;;;;;;;;;;;;;;6.29;nan;102130.00;4137723;28;20028;-62
2023/04/10 02:09:17;;;;;;;;;;;;;;;6.25;nan;102132.09;4139119;28;20021;-62
2023/04/10 02:11:23;;;;;;;;;;;;;;;6.18;nan;102127.28;4144098;28;20020;-63
2023/04/10 02:13:26;;;;;;;;;;;;;;;6.12;nan;102126.75;4154216;28;20427;-61
2023/04/10 02:15:29;;;;;;;;;;;;;;;6.05;nan;102128.19;4138386;28;19989;-62
2023/04/10 02:17:32;;;;;;;;;;;;;;;6.08;nan;102127.09;4137299;28;19949;-63
2023/04/10 02:19:37;;;;;;;;;;;;;;;6.13;nan;102127.63;4143787;28;20008;-62
2023/04/10 02:21:40;;;;;;;;;;;;;;;6.12;nan;102129.44;4139181;28;20020;-61
2023/04/10 02:23:42;;;;;;;;;;;;;;;6.10;nan;102128.69;4138360;28;20399;-62
2023/04/10 02:25:44;;;;;;;;;;;;;;;6.06;nan;102129.03;4137896;28;20020;-62
2023/04/10 02:27:46;;;;;;;;;;;;;;;6.06;nan;102131.72;4143904;28;20402;-62
2023/04/10 02:29:50;;;;;;;;;;;;;;;6.09;nan;102129.66;4138289;28;20019;-60
2023/04/10 02:31:52;;;;;;;;;;;;;;;6.15;nan;102124.81;4143987;28;20400;-62
2023/04/10 02:33:54;;;;;;;;;;;;;;;6.13;nan;102127.63;4138407;28;20024;-62
2023/04/10 02:35:58;;;;;;;;;;;;;;;6.12;nan;102131.25;4138266;28;20017;-62
2023/04/10 02:38:00;;;;;;;;;;;;;;;6.12;nan;102125.91;4160091;28;20355;-62
2023/04/10 02:40:03;;;;;;;;;;;;;;;6.16;nan;102124.72;4137993;28;20056;-62
2023/04/10 02:42:14;;;;;;;;;;;;;;;6.16;nan;102126.50;4136830;28;20023;-62
2023/04/10 02:44:16;;;;;;;;;;;;;;;6.14;nan;102129.31;4136496;28;20832;-61
2023/04/10 02:46:18;;;;;;;;;;;;;;;6.03;nan;102129.25;4143223;28;20570;-62
2023/04/10 02:48:21;;;;;;;;;;;;;;;5.87;nan;102133.03;4143722;28;20008;-62
2023/04/10 02:50:31;;;;;;;;;;;;;;;5.78;nan;102131.91;4143412;28;20036;-62
2023/04/10 02:52:35;;;;;;;;;;;;;;;5.75;nan;102140.16;4144358;28;19940;-62
2023/04/10 02:54:38;;;;;;;;;;;;;;;5.71;nan;102132.44;4138052;28;20004;-62
2023/04/10 02:56:40;;;;;;;;;;;;;;;5.69;nan;102129.00;4143871;28;20028;-61
2023/04/10 02:58:45;;;;;;;;;;;;;;;5.66;nan;102140.81;4138255;28;19925;-62
2023/04/10 03:00:50;;;;;;;;;;;;;;;5.65;nan;102144.47;4143415;28;20365;-61
2023/04/10 03:02:59;;;;;;;;;;;;;;;5.59;nan;102135.06;4138262;28;20115;-62
2023/04/10 03:05:07;;;;;;;;;;;;;;;5.56;nan;102139.75;4155214;28;20025;-62
2023/04/10 03:07:09;;;;;;;;;;;;;;;5.56;nan;102137.06;4138957;28;20025;-61
2023/04/10 03:09:15;;;;;;;;;;;;;;;5.58;nan;102143.19;4146829;28;20029;-63
2023/04/10 03:11:17;;;;;;;;;;;;;;;5.60;nan;102139.44;4139705;28;20021;-62
2023/04/10 03:13:20;;;;;;;;;;;;;;;5.64;nan;102140.06;4140961;28;20028;-62
2023/04/10 03:15:22;;;;;;;;;;;;;;;5.68;nan;102140.72;4147085;28;20037;-62
2023/04/10 03:17:24;;;;;;;;;;;;;;;5.70;nan;102134.25;4139323;28;20012;-62
2023/04/10 03:19:26;;;;;;;;;;;;;;;5.73;nan;102134.03;4155051;28;19924;-62
2023/04/10 03:21:29;;;;;;;;;;;;;;;5.72;nan;102139.50;4163160;28;19936;-62
2023/04/10 03:23:31;;;;;;;;;;;;;;;5.67;nan;102133.63;4139445;28;20017;-63
2023/04/10 03:25:35;;;;;;;;;;;;;;;5.63;nan;102132.13;4139698;28;20451;-62
2023/04/10 03:27:38;;;;;;;;;;;;;;;5.58;nan;102127.13;4144437;28;20488;-62
2023/04/10 03:29:40;;;;;;;;;;;;;;;5.55;nan;102127.34;4140810;28;20024;-62
2023/04/10 03:31:42;;;;;;;;;;;;;;;5.58;nan;102127.13;4140405;28;20415;-62
2023/04/10 03:33:45;;;;;;;;;;;;;;;5.58;nan;102127.13;4139208;28;20024;-61
2023/04/10 03:35:47;;;;;;;;;;;;;;;5.58;nan;102127.13;4162240;28;20040;-62
2023/04/10 03:37:49;;;;;;;;;;;;;;;5.58;nan;102124.44;4140057;28;20025;-62
2023/04/10 03:39:51;;;;;;;;;;;;;;;5.57;nan;102122.72;4139205;28;20376;-62
2023/04/10 03:41:54;;;;;;;;;;;;;;;5.51;nan;102121.31;4139454;28;20000;-62
2023/04/10 03:44:02;;;;;;;;;;;;;;;5.45;nan;102126.28;4139351;28;20391;-62
2023/04/10 03:46:04;;;;;;;;;;;;;;;5.51;nan;102128.50;4162627;28;20019;-62
2023/04/10 03:48:06;;;;;;;;;;;;;;;5.62;nan;102123.22;4147170;28;20012;-61
2023/04/10 03:50:18;;;;;;;;;;;;;;;5.65;nan;102127.53;4130613;28;20054;-61
2023/04/10 03:52:26;;;;;;;;;;;;;;;5.65;nan;102123.00;4139141;28;20016;-62
2023/04/10 03:54:30;;;;;;;;;;;;;;;5.60;nan;102134.06;4140816;28;20020;-62
2023/04/10 03:56:33;;;;;;;;;;;;;;;5.58;nan;102133.34;4145435;28;20028;-62
2023/04/10 03:58:40;;;;;;;;;;;;;;;5.60;nan;102127.84;4106420;28;20034;-62
2023/04/10 04:00:42;;;;;;;;;;;;;;;5.63;nan;102135.69;4140354;28;20021;-62
2023/04/10 04:02:57;;;;;;;;;;;;;;;5.63;nan;102135.69;4146514;28;19968;-62
2023/04/10 04:05:25;;;;;;;;;;;;;;;5.57;nan;102136.97;4146000;28;20362;-61
2023/04/10 04:07:47;;;;;;;;;;;;;;;5.53;nan;102127.44;4146402;28;19953;-63
2023/04/10 04:10:06;;;;;;;;;;;;;;;5.50;nan;102130.34;4155044;28;20027;-62
2023/04/10 04:12:34;;;;;;;;;;;;;;;5.49;nan;102134.00;4127674;28;20023;-63
2023/04/10 04:14:52;;;;;;;;;;;;;;;5.53;nan;102137.28;4145210;28;20028;-62
2023/04/10 04:17:11;;;;;;;;;;;;;;;5.55;nan;102135.38;4138344;28;20443;-62
2023/04/10 04:19:31;;;;;;;;;;;;;;;5.58;nan;102129.81;4154273;28;20032;-60
2023/04/10 04:21:44;;;;;;;;;;;;;;;5.57;nan;102134.28;4141058;28;20494;-62
2023/04/10 04:24:10;;;;;;;;;;;;;;;5.55;nan;102132.69;4145903;28;20012;-62
2023/04/10 04:26:33;;;;;;;;;;;;;;;5.55;nan;102135.38;4140135;28;19968;-62
2023/04/10 04:28:49;;;;;;;;;;;;;;;5.53;nan;102135.50;4138408;28;20017;-62
2023/04/10 04:31:14;;;;;;;;;;;;;;;5.52;nan;102132.91;4139622;28;19977;-62
2023/04/10 04:33:42;;;;;;;;;;;;;;;5.51;nan;102134.72;4140036;28;20345;-62
2023/04/10 04:36:01;;;;;;;;;;;;;;;5.50;nan;102126.78;4138625;28;20020;-62
2023/04/10 04:38:15;;;;;;;;;;;;;;;5.50;nan;102138.38;4139981;28;20036;-62
2023/04/10 04:40:36;;;;;;;;;;;;;;;5.49;nan;102138.50;4140121;28;20032;-62
2023/04/10 04:42:45;;;;;;;;;;;;;;;5.51;nan;102134.72;4138356;28;19929;-62
2023/04/10 04:45:00;;;;;;;;;;;;;;;5.52;nan;102136.44;4162154;28;20128;-61
2023/04/10 04:47:24;;;;;;;;;;;;;;;5.54;nan;102139.03;4113586;28;20020;-62
2023/04/10 04:49:29;;;;;;;;;;;;;;;5.56;nan;102142.44;4139992;28;20048;-62
2023/04/10 04:51:49;;;;;;;;;;;;;;;5.54;nan;102147.91;4139739;28;20364;-61
2023/04/10 04:54:09;;;;;;;;;;;;;;;5.54;nan;102139.88;4139914;28;20025;-62
2023/04/10 04:56:26;;;;;;;;;;;;;;;5.58;nan;102140.53;4138333;28;20475;-62
2023/04/10 04:58:46;;;;;;;;;;;;;;;5.58;nan;102140.53;4140164;28;20024;-62
2023/04/10 05:01:21;;;;;;;;;;;;;;;5.58;nan;102146.72;4101493;28;20061;-62
2023/04/10 05:03:44;;;;;;;;;;;;;;;5.58;nan;102130.66;4137207;28;19926;-62
2023/04/10 05:06:09;;;;;;;;;;;;;;;5.58;nan;102133.34;4131581;28;20023;-63
2023/04/10 05:08:47;;;;;;;;;;;;;;;5.56;nan;102132.59;4128725;28;20024;-62
2023/04/10 05:11:07;;;;;;;;;;;;;;;5.57;nan;102133.44;4135817;28;20013;-62
2023/04/10 05:13:36;;;;;;;;;;;;;;;5.60;nan;102133.22;4116003;28;20486;-61
2023/04/10 05:16:10;;;;;;;;;;;;;;;5.66;nan;102135.47;4144795;28;20508;-62
2023/04/10 05:18:29;;;;;;;;;;;;;;;5.69;nan;102140.59;4139550;28;20371;-63
2023/04/10 05:20:51;;;;;;;;;;;;;;;5.72;nan;102135.03;4139361;28;19926;-63
2023/04/10 05:23:05;;;;;;;;;;;;;;;5.77;nan;102137.38;4128827;28;20482;-62
2023/04/10 05:25:31;;;;;;;;;;;;;;;5.82;nan;102143.25;4133649;28;20407;-62
2023/04/10 05:27:46;;;;;;;;;;;;;;;5.84;nan;102135.94;4137165;28;20028;-62
2023/04/10 05:30:01;;;;;;;;;;;;;;;5.89;nan;102141.84;4139681;28;20028;-63
2023/04/10 05:32:41;;;;;;;;;;;;;;;5.96;nan;102142.25;4129071;28;20020;-63
2023/04/10 05:35:07;;;;;;;;;;;;;;;6.01;nan;102148.16;4139407;28;20040;-62
2023/04/10 05:37:17;;;;;;;;;;;;;;;6.05;nan;102152.31;4145148;28;20502;-63
2023/04/10 05:39:39;;;;;;;;;;;;;;;6.11;nan;102142.94;4138391;28;20021;-63
2023/04/10 05:42:09;;;;;;;;;;;;;;;6.17;nan;102157.75;4160556;28;20012;-62
2023/04/10 05:44:33;;;;;;;;;;;;;;;6.22;nan;102152.88;4153701;28;20037;-63
2023/04/10 05:46:41;;;;;;;;;;;;;;;6.27;nan;102154.28;4138092;28;20579;-63
2023/04/10 05:49:00;;;;;;;;;;;;;;;6.31;nan;102144.16;4137815;28;20005;-63
2023/04/10 05:51:18;;;;;;;;;;;;;;;6.40;nan;102148.84;4154180;28;20021;-62
2023/04/10 05:53:35;;;;;;;;;;;;;;;6.48;nan;102146.44;4137639;28;20020;-61
2023/04/10 05:55:55;;;;;;;;;;;;;;;6.58;nan;102145.72;4138977;28;20337;-62
2023/04/10 05:58:18;;;;;;;;;;;;;;;6.65;nan;102149.69;4138090;28;20021;-61
2023/04/10 06:00:46;;;;;;;;;;;;;;;6.71;nan;102145.66;4137441;28;20013;-62
2023/04/10 06:03:10;;;;;;;;;;;;;;;6.77;nan;102145.19;4138027;28;20032;-62
2023/04/10 06:05:23;;;;;;;;;;;;;;;6.84;nan;102147.28;4143493;28;20020;-61
2023/04/10 06:07:32;;;;;;;;;;;;;;;6.92;nan;102143.16;4143893;28;20400;-62
2023/04/10 06:09:35;;;;;;;;;;;;;;;6.97;nan;102141.81;4153270;28;20028;-61
2023/04/10 06:11:40;;;;;;;;;;;;;;;7.06;nan;102142.09;4143842;28;20020;-62
2023/04/10 06:13:43;;;;;;;;;;;;;;;7.12;nan;102138.94;4143900;28;19975;-62
2023/04/10 06:15:48;;;;;;;;;;;;;;;7.16;nan;102145.75;4143889;28;20017;-62
2023/04/10 06:17:50;;;;;;;;;;;;;;;7.19;nan;102149.09;4142553;28;20020;-61
2023/04/10 06:19:52;;;;;;;;;;;;;;;7.23;nan;102138.94;4139013;28;21021;-61
2023/04/10 06:21:54;;;;;;;;;;;;;;;7.29;nan;102141.16;4132494;28;20033;-62
2023/04/10 06:23:56;;;;;;;;;;;;;;;7.33;nan;102145.28;4134137;28;20837;-63
2023/04/10 06:26:02;;;;;;;;;;;;;;;7.41;nan;102139.28;4135781;28;20443;-62
2023/04/10 06:28:04;;;;;;;;;;;;;;;7.46;nan;102138.94;4134084;28;20396;-62
2023/04/10 06:30:08;;;;;;;;;;;;;;;7.51;nan;102139.44;4133818;28;20055;-60
2023/04/10 06:32:10;;;;;;;;;;;;;;;7.58;nan;102138.78;4135241;28;20031;-62
2023/04/10 06:34:14;;;;;;;;;;;;;;;7.61;nan;102136.88;4134074;28;20020;-61
2023/04/10 06:36:28;;;;;;;;;;;;;;;7.67;nan;102137.22;4140854;28;20020;-63
2023/04/10 06:38:37;;;;;;;;;;;;;;;7.72;nan;102131.47;4134694;28;19929;-62
2023/04/10 06:40:40;;;;;;;;;;;;;;;7.78;nan;102136.34;4139923;28;20084;-63
2023/04/10 06:42:44;;;;;;;;;;;;;;;7.84;nan;102126.94;4134750;28;19925;-61
2023/04/10 06:45:07;;;;;;;;;;;;;;;7.89;nan;102136.31;4136486;28;20012;-62
2023/04/10 06:47:09;;;;;;;;;;;;;;;7.94;nan;102127.88;4136676;28;20005;-62
2023/04/10 06:49:11;;;;;;;;;;;;;;;8.00;nan;102130.06;4137457;28;20451;-62
2023/04/10 06:51:13;;;;;;;;;;;;;;;8.03;nan;102132.50;4136222;28;20088;-62
2023/04/10 06:53:15;;;;;;;;;;;;;;;8.11;nan;102129.19;4135132;28;20048;-61
2023/04/10 06:55:17;;;;;;;;;;;;;;;8.16;nan;102126.97;4136896;28;20339;-63
2023/04/10 06:57:20;;;;;;;;;;;;;;;8.23;nan;102127.34;4140737;28;20020;-61
2023/04/10 06:59:23;;;;;;;;;;;;;;;8.27;nan;102126.91;4136413;28;20601;-61
2023/04/10 07:01:26;;;;;;;;;;;;;;;8.35;nan;102125.44;4136142;28;20037;-59
2023/04/10 07:03:33;;;;;;;;;;;;;;;8.38;nan;102119.78;4134985;28;19933;-62
2023/04/10 07:05:35;;;;;;;;;;;;;;;8.43;nan;102117.56;4137421;28;20292;-63
2023/04/10 07:07:37;;;;;;;;;;;;;;;8.48;nan;102121.63;4135802;28;20020;-61
2023/04/10 07:09:40;;;;;;;;;;;;;;;8.52;nan;102116.81;4135800;28;19965;-61
2023/04/10 07:11:41;;;;;;;;;;;;;;;8.58;nan;102123.53;4136941;28;20005;-60
2023/04/10 07:13:43;;;;;;;;;;;;;;;8.62;nan;102119.56;4142968;28;20134;-61
2023/04/10 07:15:47;;;;;;;;;;;;;;;8.66;nan;102112.97;4137390;28;20013;-62
2023/04/10 07:17:49;;;;;;;;;;;;;;;8.70;nan;102113.53;4137197;28;20021;-62
2023/04/10 07:19:51;;;;;;;;;;;;;;;8.74;nan;102120.38;4136646;28;20024;-61
2023/04/10 07:21:53;;;;;;;;;;;;;;;8.76;nan;102121.09;4135416;28;20041;-61
2023/04/10 07:23:55;;;;;;;;;;;;;;;8.78;nan;102119.16;4137333;28;19961;-64
2023/04/10 07:25:59;;;;;;;;;;;;;;;8.76;nan;102116.59;4136672;28;22148;-62
2023/04/10 07:28:02;;;;;;;;;;;;;;;8.83;nan;102125.00;4136955;28;20020;-61
2023/04/10 07:30:05;;;;;;;;;;;;;;;8.85;nan;102114.91;4136221;28;20388;-62
2023/04/10 07:32:08;;;;;;;;;;;;;;;8.90;nan;102123.47;4135429;28;20045;-63
2023/04/10 07:34:11;;;;;;;;;;;;;;;8.93;nan;102115.09;4137155;28;20020;-62
2023/04/10 07:36:13;;;;;;;;;;;;;;;8.97;nan;102121.09;4139346;28;20824;-61
2023/04/10 07:38:15;;;;;;;;;;;;;;;9.02;nan;102111.63;4143393;28;20433;-62
2023/04/10 07:40:17;;;;;;;;;;;;;;;9.04;nan;102108.78;4137837;28;20068;-62
2023/04/10 07:42:19;;;;;;;;;;;;;;;9.09;nan;102111.09;4136999;28;20028;-63
2023/04/10 07:44:21;;;;;;;;;;;;;;;9.10;nan;102096.63;4137298;28;20028;-62
2023/04/10 07:46:23;;;;;;;;;;;;;;;9.16;nan;102106.88;4137588;28;20337;-62
2023/04/10 07:48:26;;;;;;;;;;;;;;;9.16;nan;102099.63;4138160;28;20037;-63
2023/04/10 07:50:29;;;;;;;;;;;;;;;9.19;nan;102096.69;4138344;28;19972;-62
2023/04/10 07:52:31;;;;;;;;;;;;;;;9.24;nan;102104.34;4139904;28;20034;-62
2023/04/10 07:54:33;;;;;;;;;;;;;;;9.26;nan;102101.53;4147333;28;20021;-63
2023/04/10 07:56:35;;;;;;;;;;;;;;;9.31;nan;102099.28;4140811;28;20029;-61
2023/04/10 07:58:38;;;;;;;;;;;;;;;9.33;nan;102106.25;4138794;28;20051;-60
2023/04/10 08:00:40;;;;;;;;;;;;;;;9.36;nan;102099.75;4139494;28;20379;-62
2023/04/10 08:02:42;;;;;;;;;;;;;;;9.38;nan;102101.28;4138587;28;20033;-63
2023/04/10 08:04:45;;;;;;;;;;;;;;;9.41;nan;102097.47;4139605;28;19963;-61
2023/04/10 08:06:48;;;;;;;;;;;;;;;9.46;nan;102100.63;4139294;28;20024;-62
2023/04/10 08:08:51;;;;;;;;;;;;;;;9.49;nan;102105.75;4138799;28;20025;-62
2023/04/10 08:10:53;;;;;;;;;;;;;;;9.54;nan;102099.94;4138751;28;20675;-61
2023/04/10 08:12:55;;;;;;;;;;;;;;;9.56;nan;102100.66;4138427;28;20448;-62
2023/04/10 08:14:57;;;;;;;;;;;;;;;9.59;nan;102099.53;4138380;28;20374;-62
2023/04/10 08:17:02;;;;;;;;;;;;;;;9.61;nan;102090.31;4138425;28;20028;-63
2023/04/10 08:19:05;;;;;;;;;;;;;;;9.63;nan;102091.03;4138678;28;20362;-63
2023/04/10 08:21:08;;;;;;;;;;;;;;;9.66;nan;102090.75;4139049;28;20069;-62
2023/04/10 08:23:10;;;;;;;;;;;;;;;9.70;nan;102092.19;4138247;28;20028;-63
2023/04/10 08:25:12;;;;;;;;;;;;;;;9.75;nan;102094.47;4138757;28;20381;-62
2023/04/10 08:27:15;;;;;;;;;;;;;;;9.77;nan;102084.38;4139216;28;20025;-62
2023/04/10 08:29:17;;;;;;;;;;;;;;;9.76;nan;102079.13;4138339;28;20020;-62
2023/04/10 08:31:20;;;;;;;;;;;;;;;9.81;nan;102082.25;4139002;28;20550;-62
2023/04/10 08:33:22;;;;;;;;;;;;;;;9.87;nan;102082.56;4137507;28;20536;-62
2023/04/10 08:35:24;;;;;;;;;;;;;;;9.90;nan;102087.66;4137691;28;20020;-63
2023/04/10 08:37:28;;;;;;;;;;;;;;;9.95;nan;102087.25;4138219;28;20028;-62
2023/04/10 08:39:30;;;;;;;;;;;;;;;10.00;nan;102089.53;4138639;28;20017;-62
2023/04/10 08:41:34;;;;;;;;;;;;;;;10.04;nan;102090.97;4138380;28;20024;-63
2023/04/10 08:43:35;;;;;;;;;;;;;;;10.08;nan;102087.00;4137364;28;20360;-62
2023/04/10 08:45:39;;;;;;;;;;;;;;;10.15;nan;102084.59;4138237;28;20029;-61
2023/04/10 08:47:41;;;;;;;;;;;;;;;10.18;nan;102085.13;4138103;28;20024;-62
2023/04/10 08:49:50;;;;;;;;;;;;;;;-146.32;100.00;63746.28;4138174;28;20022;-62
2023/04/10 08:51:54;;;;;;;;;;;;;;;-146.32;100.00;63746.28;4137341;28;20312;-61
2023/04/10 08:53:58;;;;;;;;;;;;;;;-146.32;100.00;63746.28;4138212;28;19929;-62
2023/04/10 08:56:00;;;;;;;;;;;;;;;-146.32;100.00;63746.28;4138379;28;20384;-62
2023/04/10 08:58:02;;;;;;;;;;;;;;;-146.32;100.00;63746.28;4138372;28;19933;-63
2023/04/10 09:00:05;;;;;;;;;;;;;;;-146.32;100.00;63746.28;4137984;28;20312;-62
2023/04/10 09:02:10;;;;;;;;;;;;;;;-146.32;100.00;63746.28;4137632;28;19944;-61
2023/04/10 09:04:13;;;;;;;;;;;;;;;-146.32;100.00;63746.28;4137754;28;19926;-62
2023/04/10 09:06:15;;;;;;;;;;;;;;;-146.32;100.00;63746.28;4138429;28;19929;-62
2023/04/10 09:08:17;;;;;;;;;;;;;;;-146.32;100.00;63746.28;4138425;28;19956;-62
2023/04/10 09:10:20;;;;;;;;;;;;;;;-146.32;100.00;63746.28;4139367;28;19932;-63
2023/04/10 09:12:23;;;;;;;;;;;;;;;-146.32;100.00;63746.28;4138716;28;19926;-62
2023/04/10 09:14:25;;;;;;;;;;;;;;;-146.32;100.00;63746.28;4137087;28;19926;-63
2023/04/10 09:16:28;;;;;;;;;;;;;;;-146.32;100.00;63746.28;4137207;28;19955;-63
2023/04/10 09:18:43;;;;;;;;;;;;;;;-146.32;100.00;63746.28;4139032;28;19935;-63
2023/04/10 09:20:50;;;;;;;;;;;;;;;-146.32;100.00;63746.28;4138201;28;20596;-62
2023/04/10 09:22:52;;;;;;;;;;;;;;;-146.32;100.00;63746.28;4138707;28;19940;-62
2023/04/10 09:24:54;;;;;;;;;;;;;;;-146.32;100.00;63746.28;4138062;28;19935;-62
2023/04/10 09:26:58;;;;;;;;;;;;;;;-146.32;100.00;63746.28;4139142;28;20335;-62
2023/04/10 09:29:01;;;;;;;;;;;;;;;-146.32;100.00;63746.28;4137994;28;19935;-62
2023/04/10 09:31:03;;;;;;;;;;;;;;;-146.32;100.00;63746.28;4138391;28;20327;-63
2023/04/10 09:33:21;;;;;;;;;;;;;;;-146.32;100.00;63746.28;4137524;28;19925;-62
2023/04/10 09:35:23;;;;;;;;;;;;;;;-146.32;100.00;63746.28;4138723;28;19981;-62
2023/04/10 09:37:31;;;;;;;;;;;;;;;-146.32;100.00;63746.28;4139083;28;19944;-62
2023/04/10 09:39:33;;;;;;;;;;;;;;;-146.32;100.00;63746.28;4140048;28;19926;-62
2023/04/10 09:41:35;;;;;;;;;;;;;;;-146.32;100.00;63746.28;4138711;28;19932;-61
2023/04/10 09:43:41;;;;;;;;;;;;;;;-146.32;100.00;63746.28;4134515;28;19930;-62
2023/04/10 09:45:46;;;;;;;;;;;;;;;-146.32;100.00;63746.28;4134880;28;19932;-61
2023/04/10 09:48:06;;;;;;;;;;;;;;;-146.32;100.00;63746.28;4136673;28;19929;-62
2023/04/10 09:50:08;;;;;;;;;;;;;;;-146.32;100.00;63746.28;4136501;28;19926;-62
2023/04/10 09:52:14;;;;;;;;;;;;;;;-146.32;100.00;63746.28;4137690;28;19932;-61
2023/04/10 09:54:16;;;;;;;;;;;;;;;-146.32;100.00;63746.28;4137549;28;19934;-61
2023/04/10 09:56:18;;;;;;;;;;;;;;;-146.32;100.00;63746.28;4137833;28;19929;-62
2023/04/10 09:58:21;;;;;;;;;;;;;;;-146.32;100.00;63746.28;4137909;28;19932;-60
2023/04/10 10:00:24;;;;;;;;;;;;;;;-146.32;100.00;63746.28;4138327;28;19948;-60
2023/04/10 10:02:29;;;;;;;;;;;;;;;-146.32;100.00;63746.28;4138675;28;19947;-62
2023/04/10 10:04:31;;;;;;;;;;;;;;;-146.32;100.00;63746.28;4138564;28;19930;-63
2023/04/10 10:06:33;;;;;;;;;;;;;;;-146.32;100.00;63746.28;4138574;28;20558;-63
2023/04/10 10:08:35;;;;;;;;;;;;;;;-146.32;100.00;63746.28;4138533;28;20380;-61
2023/04/10 10:10:38;;;;;;;;;;;;;;;-146.32;100.00;63746.28;4138761;28;19933;-62
2023/04/10 10:12:43;;;;;;;;;;;;;;;-146.32;100.00;63746.28;4137742;28;19926;-62
2023/04/10 10:14:47;;;;;;;;;;;;;;;-146.32;100.00;63746.28;4137049;28;19925;-62
2023/04/10 10:16:51;;;;;;;;;;;;;;;-146.32;100.00;63746.28;4138297;28;19937;-62
2023/04/10 10:18:54;;;;;;;;;;;;;;;-146.32;100.00;63746.28;4138443;28;19940;-62
2023/04/10 10:20:56;;;;;;;;;;;;;;;-146.32;100.00;63746.28;4138313;28;20430;-61
2023/04/10 10:22:59;;;;;;;;;;;;;;;-146.32;100.00;63746.28;4138068;28;19931;-61
2023/04/10 10:25:01;;;;;;;;;;;;;;;-146.32;100.00;63746.28;4138885;28;19930;-63
2023/04/10 10:27:03;;;;;;;;;;;;;;;-146.32;100.00;63746.28;4138693;28;19929;-63
2023/04/10 10:29:09;;;;;;;;;;;;;;;-146.32;100.00;63746.28;4138365;28;19926;-62
2023/04/10 10:31:11;;;;;;;;;;;;;;;-146.32;100.00;63746.28;4138269;28;20304;-60
2023/04/10 10:33:15;;;;;;;;;;;;;;;-146.32;100.00;63746.28;4137306;28;20322;-60
2023/04/10 10:35:17;;;;;;;;;;;;;;;-146.32;100.00;63746.28;4138010;28;19925;-61
2023/04/10 10:37:19;;;;;;;;;;;;;;;-146.32;100.00;63746.28;4138030;28;19929;-61
2023/04/10 10:39:24;;;;;;;;;;;;;;;-146.32;100.00;63746.28;4137922;28;19932;-62
2023/04/10 10:41:26;;;;;;;;;;;;;;;-146.32;100.00;63746.28;4137825;28;19925;-62
2023/04/10 10:43:33;;;;;;;;;;;;;;;-146.32;100.00;63746.28;4137624;28;19933;-60
2023/04/10 10:45:37;;;;;;;;;;;;;;;-146.32;100.00;63746.28;4137443;28;19929;-61
2023/04/10 10:47:40;;;;;;;;;;;;;;;-146.32;100.00;63746.28;4137836;28;19925;-62
2023/04/10 10:49:54;;;;;;;;;;;;;;;-146.32;100.00;63746.28;4137957;28;19926;-62
2023/04/10 10:51:56;;;;;;;;;;;;;;;-146.32;100.00;63746.28;4137145;28;19926;-62
2023/04/10 10:53:58;;;;;;;;;;;;;;;-146.32;100.00;63746.28;4137615;28;19940;-62
2023/04/10 10:56:05;;;;;;;;;;;;;;;-146.32;100.00;63746.28;4137540;28;20444;-61
2023/04/10 10:58:08;;;;;;;;;;;;;;;-146.32;100.00;63746.28;4138055;28;20330;-62
2023/04/10 11:00:10;;;;;;;;;;;;;;;-146.32;100.00;63746.28;4137601;28;20814;-62
2023/04/10 11:02:14;;;;;;;;;;;;;;;-146.32;100.00;63746.28;4137383;28;20296;-62
2023/04/10 11:04:37;;;;;;;;;;;;;;;-146.32;100.00;63746.28;4137675;28;19929;-61
2023/04/10 11:06:51;;;;;;;;;;;;;;;-146.32;100.00;63746.28;4137539;28;20417;-62